createdAt,value
2018-03-25T00:00:17.873Z,99.90
2018-03-25T00:02:46.591Z,99.90
2018-03-25T00:05:16.056Z,99.90
2018-03-25T00:07:44.311Z,99.90
2018-03-25T00:10:12.601Z,99.90
2018-03-25T00:12:40.854Z,99.90
2018-03-25T00:15:09.130Z,99.90
2018-03-25T00:17:37.414Z,99.90
2018-03-25T00:20:05.703Z,99.90
2018-03-25T00:22:33.991Z,99.90
2018-03-25T00:25:05.434Z,99.90
2018-03-25T00:27:33.713Z,99.90
2018-03-25T00:30:01.975Z,99.90
2018-03-25T00:32:30.524Z,99.90
2018-03-25T00:34:59.754Z,99.90
2018-03-25T00:37:28.038Z,99.90
2018-03-25T00:39:56.317Z,99.90
2018-03-25T00:42:24.619Z,99.90
2018-03-25T00:44:55.782Z,99.90
2018-03-25T00:47:24.063Z,99.90
2018-03-25T00:49:52.313Z,99.90
2018-03-25T00:52:20.598Z,99.90
2018-03-25T00:54:52.043Z,99.90
2018-03-25T00:57:20.290Z,99.90
2018-03-25T00:59:48.575Z,99.90
2018-03-25T01:02:16.853Z,99.90
2018-03-25T01:04:46.486Z,99.90
2018-03-25T01:07:15.914Z,99.90
2018-03-25T01:09:44.165Z,99.90
2018-03-25T01:12:12.420Z,99.90
2018-03-25T01:14:40.710Z,99.90
2018-03-25T01:17:08.957Z,99.90
2018-03-25T01:19:37.237Z,99.90
2018-03-25T01:22:05.497Z,99.90
2018-03-25T01:24:33.781Z,99.90
2018-03-25T01:27:02.034Z,99.90
2018-03-25T01:29:30.338Z,99.90
2018-03-25T01:31:58.589Z,99.90
2018-03-25T01:34:26.850Z,99.90
2018-03-25T01:36:55.130Z,99.90
2018-03-25T01:39:23.386Z,99.90
2018-03-25T01:41:50.902Z,99.90
2018-03-25T01:44:19.157Z,99.90
2018-03-25T01:46:47.434Z,99.90
2018-03-25T01:49:16.294Z,99.90
2018-03-25T01:51:44.577Z,99.90
2018-03-25T01:54:12.825Z,99.90
2018-03-25T01:56:41.110Z,99.90
2018-03-25T01:59:09.390Z,99.90
2018-03-25T02:01:37.644Z,99.90
2018-03-25T02:04:05.947Z,99.90
2018-03-25T02:06:34.206Z,99.90
2018-03-25T02:09:02.465Z,99.90
2018-03-25T02:11:30.763Z,99.90
2018-03-25T02:13:59.018Z,99.90
2018-03-25T02:16:26.513Z,99.90
2018-03-25T02:18:54.778Z,99.90
2018-03-25T02:21:23.070Z,99.90
2018-03-25T02:23:51.326Z,99.90
2018-03-25T02:26:18.854Z,99.90
2018-03-25T02:28:47.114Z,99.90
2018-03-25T02:31:16.332Z,99.90
2018-03-25T02:33:44.600Z,99.90
2018-03-25T02:36:12.896Z,99.90
2018-03-25T02:38:41.175Z,99.90
2018-03-25T02:41:09.464Z,99.90
2018-03-25T02:43:37.719Z,99.90
2018-03-25T02:46:06.016Z,99.90
2018-03-25T02:48:34.317Z,99.90
2018-03-25T02:51:02.599Z,99.90
2018-03-25T02:53:30.862Z,99.90
2018-03-25T02:55:59.142Z,99.90
2018-03-25T02:58:27.394Z,99.90
2018-03-25T03:00:55.685Z,99.90
2018-03-25T03:03:23.951Z,99.90
2018-03-25T03:05:52.248Z,99.90
2018-03-25T03:08:19.735Z,99.90
2018-03-25T03:10:48.019Z,99.90
2018-03-25T03:13:17.532Z,99.90
2018-03-25T03:15:46.798Z,99.90
2018-03-25T03:18:16.483Z,99.90
2018-03-25T03:20:45.761Z,99.90
2018-03-25T03:23:14.056Z,99.90
2018-03-25T03:25:41.556Z,99.90
2018-03-25T03:28:09.836Z,99.90
2018-03-25T03:30:38.088Z,99.90
2018-03-25T03:33:06.369Z,99.90
2018-03-25T03:35:34.631Z,99.90
2018-03-25T03:38:02.913Z,99.90
2018-03-25T03:40:31.217Z,99.90
2018-03-25T03:42:59.465Z,99.90
2018-03-25T03:45:27.725Z,99.90
2018-03-25T03:47:55.230Z,99.90
2018-03-25T03:50:23.478Z,99.90
2018-03-25T03:52:51.771Z,99.90
2018-03-25T03:55:20.078Z,99.90
2018-03-25T03:57:48.368Z,99.90
2018-03-25T04:00:16.651Z,99.90
2018-03-25T04:02:45.931Z,99.90
2018-03-25T04:05:14.226Z,99.90
2018-03-25T04:07:42.476Z,99.90
2018-03-25T04:10:10.731Z,99.90
2018-03-25T04:12:39.049Z,99.90
2018-03-25T04:15:07.306Z,99.90
2018-03-25T04:17:35.572Z,99.90
2018-03-25T04:20:03.855Z,99.90
2018-03-25T04:22:32.114Z,99.90
2018-03-25T04:25:03.314Z,99.90
2018-03-25T04:27:31.563Z,99.90
2018-03-25T04:29:59.850Z,99.90
2018-03-25T04:32:28.148Z,99.90
2018-03-25T04:34:56.410Z,99.90
2018-03-25T04:37:24.690Z,99.90
2018-03-25T04:39:52.938Z,99.90
2018-03-25T04:42:21.237Z,99.90
2018-03-25T04:44:49.516Z,99.90
2018-03-25T04:47:17.814Z,99.90
2018-03-25T04:49:47.267Z,99.90
2018-03-25T04:52:15.564Z,99.90
2018-03-25T04:54:43.820Z,99.90
2018-03-25T04:57:12.112Z,99.90
2018-03-25T04:59:40.367Z,99.90
2018-03-25T05:02:08.658Z,99.90
2018-03-25T05:04:36.920Z,99.90
2018-03-25T05:07:05.210Z,99.90
2018-03-25T05:09:33.497Z,99.90
2018-03-25T05:12:01.849Z,99.90
2018-03-25T05:14:30.102Z,99.90
2018-03-25T05:16:58.354Z,99.90
2018-03-25T05:19:26.658Z,99.90
2018-03-25T05:21:54.938Z,99.90
2018-03-25T05:24:23.226Z,99.90
2018-03-25T05:26:50.713Z,99.90
2018-03-25T05:29:19.002Z,99.90
2018-03-25T05:31:47.264Z,99.90
2018-03-25T05:34:15.539Z,99.90
2018-03-25T05:36:43.823Z,99.90
2018-03-25T05:39:12.079Z,99.90
2018-03-25T05:41:40.374Z,99.90
2018-03-25T05:44:08.658Z,99.90
2018-03-25T05:46:36.937Z,99.90
2018-03-25T05:49:05.196Z,99.90
2018-03-25T05:51:33.482Z,99.90
2018-03-25T05:54:00.968Z,99.90
2018-03-25T05:56:29.279Z,99.90
2018-03-25T05:58:57.546Z,99.90
2018-03-25T06:01:25.046Z,99.90
2018-03-25T06:03:53.337Z,99.90
2018-03-25T06:06:21.631Z,99.90
2018-03-25T06:08:49.899Z,99.90
2018-03-25T06:11:18.154Z,99.90
2018-03-25T06:13:47.445Z,99.90
2018-03-25T06:16:16.471Z,99.90
2018-03-25T06:18:45.798Z,99.90
2018-03-25T06:21:14.046Z,99.90
2018-03-25T06:23:42.302Z,99.90
2018-03-25T06:26:10.598Z,99.90
2018-03-25T06:28:38.851Z,99.90
2018-03-25T06:31:07.112Z,99.90
2018-03-25T06:33:35.398Z,99.90
2018-03-25T06:36:03.673Z,99.90
2018-03-25T06:38:31.962Z,99.90
2018-03-25T06:41:00.243Z,99.90
2018-03-25T06:43:28.510Z,99.90
2018-03-25T06:45:56.790Z,99.90
2018-03-25T06:48:25.043Z,99.90
2018-03-25T06:50:53.355Z,99.90
2018-03-25T06:53:21.611Z,99.90
2018-03-25T06:55:49.866Z,99.90
2018-03-25T06:58:18.162Z,99.90
2018-03-25T07:00:47.437Z,99.90
2018-03-25T07:03:16.642Z,99.90
2018-03-25T07:05:45.948Z,99.90
2018-03-25T07:08:14.198Z,99.90
2018-03-25T07:10:42.513Z,99.90
2018-03-25T07:13:10.002Z,99.90
2018-03-25T07:15:38.268Z,99.90
2018-03-25T07:18:06.550Z,99.90
2018-03-25T07:20:34.806Z,99.90
2018-03-25T07:23:03.096Z,99.90
2018-03-25T07:25:31.359Z,99.90
2018-03-25T07:27:59.660Z,99.90
2018-03-25T07:30:27.925Z,99.90
2018-03-25T07:32:56.219Z,99.90
2018-03-25T07:35:24.474Z,99.90
2018-03-25T07:37:52.730Z,99.90
2018-03-25T07:40:21.010Z,99.90
2018-03-25T07:42:50.294Z,99.90
2018-03-25T07:45:18.563Z,99.90
2018-03-25T07:47:46.853Z,99.90
2018-03-25T07:50:16.298Z,99.90
2018-03-25T07:52:44.626Z,99.90
2018-03-25T07:55:12.884Z,99.90
2018-03-25T07:57:41.155Z,99.90
2018-03-25T08:00:09.438Z,99.90
2018-03-25T08:02:37.693Z,99.90
2018-03-25T08:05:05.994Z,99.90
2018-03-25T08:07:34.256Z,99.90
2018-03-25T08:10:02.542Z,99.90
2018-03-25T08:12:30.814Z,99.90
2018-03-25T08:14:59.071Z,99.90
2018-03-25T08:17:27.372Z,99.90
2018-03-25T08:19:55.667Z,99.90
2018-03-25T08:22:23.200Z,99.90
2018-03-25T08:24:51.458Z,99.90
2018-03-25T08:27:19.746Z,99.90
2018-03-25T08:29:47.998Z,99.90
2018-03-25T08:32:17.012Z,99.90
2018-03-25T08:34:46.165Z,99.90
2018-03-25T08:37:15.266Z,99.90
2018-03-25T08:39:43.550Z,99.90
2018-03-25T08:42:11.811Z,99.90
2018-03-25T08:44:40.098Z,99.90
2018-03-25T08:47:08.354Z,99.90
2018-03-25T08:49:36.635Z,99.90
2018-03-25T08:52:04.882Z,99.90
2018-03-25T08:54:33.159Z,99.90
2018-03-25T08:57:04.833Z,99.90
2018-03-25T08:59:33.114Z,99.90
2018-03-25T09:02:01.381Z,99.90
2018-03-25T09:04:29.670Z,99.90
2018-03-25T09:06:57.933Z,99.90
2018-03-25T09:09:26.198Z,99.90
2018-03-25T09:11:54.478Z,99.90
2018-03-25T09:14:22.736Z,99.90
2018-03-25T09:16:51.033Z,99.90
2018-03-25T09:19:19.294Z,99.90
2018-03-25T09:21:46.827Z,99.90
2018-03-25T09:24:16.598Z,99.90
2018-03-25T09:26:45.822Z,99.90
2018-03-25T09:29:14.117Z,99.90
2018-03-25T09:31:42.379Z,99.90
2018-03-25T09:34:10.631Z,99.90
2018-03-25T09:36:38.238Z,99.90
2018-03-25T09:39:06.488Z,99.90
2018-03-25T09:41:34.741Z,99.90
2018-03-25T09:44:03.021Z,99.90
2018-03-25T09:46:31.266Z,99.90
2018-03-25T09:48:59.551Z,99.90
2018-03-25T09:51:27.834Z,99.90
2018-03-25T09:53:56.130Z,99.90
2018-03-25T09:56:24.387Z,99.90
2018-03-25T09:58:52.693Z,99.90
2018-03-25T10:01:26.727Z,99.90
2018-03-25T10:03:55.011Z,99.90
2018-03-25T10:06:23.262Z,99.90
2018-03-25T10:08:51.557Z,99.90
2018-03-25T10:11:19.814Z,99.90
2018-03-25T10:13:48.114Z,99.90
2018-03-25T10:16:17.298Z,99.90
2018-03-25T10:18:45.582Z,99.90
2018-03-25T10:21:14.609Z,99.90
2018-03-25T10:23:42.913Z,99.90
2018-03-25T10:26:11.163Z,99.90
2018-03-25T10:28:39.470Z,99.90
2018-03-25T10:31:07.886Z,99.90
2018-03-25T10:33:36.139Z,99.90
2018-03-25T10:36:04.418Z,99.90
2018-03-25T10:38:32.706Z,99.90
2018-03-25T10:41:01.008Z,99.90
2018-03-25T10:43:29.269Z,99.90
2018-03-25T10:45:57.558Z,99.90
2018-03-25T10:48:25.852Z,99.90
2018-03-25T10:50:54.128Z,99.90
2018-03-25T10:53:22.424Z,99.90
2018-03-25T10:55:50.678Z,99.90
2018-03-25T10:58:18.976Z,99.90
2018-03-25T11:00:47.238Z,99.90
2018-03-25T11:03:15.564Z,99.90
2018-03-25T11:05:43.839Z,99.90
2018-03-25T11:08:12.098Z,99.90
2018-03-25T11:10:41.329Z,99.90
2018-03-25T11:13:09.643Z,99.90
2018-03-25T11:15:38.196Z,99.90
2018-03-25T11:18:06.500Z,99.90
2018-03-25T11:20:34.800Z,99.90
2018-03-25T11:23:11.200Z,99.90
2018-03-25T11:25:39.494Z,99.90
2018-03-25T11:28:07.777Z,99.90
2018-03-25T11:30:36.067Z,99.90
2018-03-25T11:33:04.327Z,99.90
2018-03-25T11:35:32.614Z,99.90
2018-03-25T11:38:01.872Z,99.90
2018-03-25T11:40:30.170Z,99.90
2018-03-25T11:43:03.896Z,99.90
2018-03-25T11:45:32.194Z,99.90
2018-03-25T11:48:11.837Z,99.90
2018-03-25T11:50:40.136Z,99.90
2018-03-25T11:53:10.368Z,99.90
2018-03-25T11:55:45.842Z,99.90
2018-03-25T11:58:14.130Z,99.90
2018-03-25T12:00:42.420Z,99.90
2018-03-25T12:03:10.710Z,99.90
2018-03-25T12:05:41.806Z,99.90
2018-03-25T12:08:10.084Z,99.90
2018-03-25T12:10:38.376Z,99.90
2018-03-25T12:13:06.713Z,99.90
2018-03-25T12:15:35.927Z,99.90
2018-03-25T12:18:04.221Z,99.90
2018-03-25T12:20:33.485Z,99.90
2018-03-25T12:23:01.745Z,99.90
2018-03-25T12:25:30.051Z,99.90
2018-03-25T12:27:57.556Z,99.90
2018-03-25T12:30:25.879Z,99.90
2018-03-25T12:32:54.134Z,99.90
2018-03-25T12:35:23.402Z,99.90
2018-03-25T12:37:51.690Z,99.90
2018-03-25T12:40:20.905Z,99.90
2018-03-25T12:42:49.202Z,99.90
2018-03-25T12:45:17.484Z,99.90
2018-03-25T12:47:46.922Z,99.90
2018-03-25T12:50:16.878Z,99.90
2018-03-25T12:52:46.391Z,99.90
2018-03-25T12:55:14.657Z,99.90
2018-03-25T12:57:42.173Z,99.90
2018-03-25T13:00:12.374Z,99.90
2018-03-25T13:02:40.629Z,99.90
2018-03-25T13:05:08.919Z,99.90
2018-03-25T13:07:36.443Z,99.90
2018-03-25T13:10:09.287Z,99.00
2018-03-25T13:12:37.567Z,97.30
2018-03-25T13:15:11.343Z,97.30
2018-03-25T13:17:39.598Z,97.50
2018-03-25T13:20:13.430Z,98.20
2018-03-25T13:22:40.940Z,98.20
2018-03-25T13:25:15.067Z,99.80
2018-03-25T13:27:43.328Z,99.90
2018-03-25T13:30:11.597Z,99.90
2018-03-25T13:32:39.890Z,99.90
2018-03-25T13:35:08.374Z,99.90
2018-03-25T13:37:36.674Z,99.90
2018-03-25T13:40:04.924Z,99.90
2018-03-25T13:42:33.218Z,99.90
2018-03-25T13:45:04.674Z,99.50
2018-03-25T13:47:32.205Z,99.50
2018-03-25T13:50:07.418Z,99.20
2018-03-25T13:52:35.698Z,98.60
2018-03-25T13:55:10.405Z,99.30
2018-03-25T13:57:38.714Z,99.90
2018-03-25T14:00:07.899Z,98.70
2018-03-25T14:02:36.164Z,99.90
2018-03-25T14:05:12.491Z,98.50
2018-03-25T14:07:59.682Z,98.90
2018-03-25T14:10:27.962Z,99.30
2018-03-25T14:13:08.824Z,99.90
2018-03-25T14:15:37.123Z,99.80
2018-03-25T14:18:05.380Z,99.40
2018-03-25T14:20:33.645Z,99.90
2018-03-25T14:23:02.923Z,99.30
2018-03-25T14:25:31.178Z,98.80
2018-03-25T14:28:01.474Z,99.90
2018-03-25T14:30:29.726Z,98.50
2018-03-25T14:32:57.990Z,99.10
2018-03-25T14:35:26.283Z,98.90
2018-03-25T14:37:54.542Z,99.90
2018-03-25T14:40:23.842Z,99.50
2018-03-25T14:42:52.131Z,99.80
2018-03-25T14:45:20.407Z,99.10
2018-03-25T14:47:48.701Z,99.90
2018-03-25T14:50:17.089Z,99.90
2018-03-25T14:52:45.852Z,99.90
2018-03-25T14:55:14.160Z,99.90
2018-03-25T14:57:46.558Z,99.90
2018-03-25T15:00:15.626Z,99.90
2018-03-25T15:02:47.090Z,99.90
2018-03-25T15:05:15.902Z,99.90
2018-03-25T15:07:47.917Z,99.90
2018-03-25T15:10:17.091Z,99.90
2018-03-25T15:12:45.003Z,99.90
2018-03-25T15:15:13.262Z,99.90
2018-03-25T15:18:00.950Z,99.90
2018-03-25T15:20:29.205Z,99.90
2018-03-25T15:22:57.510Z,99.90
2018-03-25T15:25:25.767Z,99.90
2018-03-25T15:27:54.051Z,99.90
2018-03-25T15:30:22.344Z,99.90
2018-03-25T15:32:50.658Z,99.90
2018-03-25T15:35:18.929Z,99.90
2018-03-25T15:37:47.186Z,99.90
2018-03-25T15:40:16.299Z,99.90
2018-03-25T15:42:45.453Z,99.90
2018-03-25T15:45:13.679Z,99.90
2018-03-25T15:47:41.979Z,99.90
2018-03-25T15:50:10.270Z,99.90
2018-03-25T15:52:38.562Z,99.90
2018-03-25T15:55:06.842Z,99.90
2018-03-25T15:57:35.123Z,99.90
2018-03-25T16:00:03.416Z,99.90
2018-03-25T16:02:31.723Z,99.90
2018-03-25T16:04:59.990Z,99.90
2018-03-25T16:07:28.287Z,99.90
2018-03-25T16:09:56.542Z,99.90
2018-03-25T16:12:24.835Z,99.90
2018-03-25T16:14:52.358Z,99.90
2018-03-25T16:17:24.027Z,99.90
2018-03-25T16:19:52.290Z,99.90
2018-03-25T16:22:20.583Z,99.90
2018-03-25T16:24:48.853Z,99.90
2018-03-25T16:27:17.606Z,99.90
2018-03-25T16:29:46.567Z,99.90
2018-03-25T16:32:15.906Z,99.90
2018-03-25T16:34:44.202Z,99.90
2018-03-25T16:37:12.467Z,99.90
2018-03-25T16:39:40.767Z,99.90
2018-03-25T16:42:09.054Z,99.90
2018-03-25T16:44:37.346Z,99.90
2018-03-25T16:47:05.766Z,99.90
2018-03-25T16:49:34.054Z,99.90
2018-03-25T16:52:02.315Z,99.90
2018-03-25T16:54:30.616Z,99.90
2018-03-25T16:56:58.914Z,99.90
2018-03-25T16:59:27.182Z,99.90
2018-03-25T17:01:55.463Z,99.90
2018-03-25T17:04:23.750Z,99.90
2018-03-25T17:06:52.006Z,99.90
2018-03-25T17:09:20.290Z,99.90
2018-03-25T17:11:48.566Z,99.90
2018-03-25T17:14:19.186Z,99.90
2018-03-25T17:16:46.679Z,99.90
2018-03-25T17:19:15.602Z,99.90
2018-03-25T17:21:43.866Z,99.90
2018-03-25T17:24:12.150Z,99.90
2018-03-25T17:26:39.642Z,99.90
2018-03-25T17:29:07.942Z,99.90
2018-03-25T17:31:36.209Z,99.90
2018-03-25T17:34:04.519Z,99.90
2018-03-25T17:36:32.774Z,99.90
2018-03-25T17:39:01.031Z,99.90
2018-03-25T17:41:28.565Z,99.90
2018-03-25T17:43:56.822Z,99.90
2018-03-25T17:46:25.094Z,99.90
2018-03-25T17:48:53.384Z,99.90
2018-03-25T17:51:21.674Z,99.90
2018-03-25T17:53:49.952Z,99.90
2018-03-25T17:56:18.227Z,99.90
2018-03-25T17:58:47.442Z,99.90
2018-03-25T18:01:15.592Z,99.90
2018-03-25T18:03:43.888Z,99.90
2018-03-25T18:06:11.370Z,99.90
2018-03-25T18:08:39.641Z,99.90
2018-03-25T18:11:07.916Z,99.90
2018-03-25T18:13:36.205Z,99.90
2018-03-25T18:16:04.458Z,99.90
2018-03-25T18:18:32.759Z,99.90
2018-03-25T18:21:01.033Z,99.90
2018-03-25T18:23:29.301Z,99.90
2018-03-25T18:25:57.664Z,99.90
2018-03-25T18:28:25.881Z,99.90
2018-03-25T18:30:54.178Z,99.90
2018-03-25T18:33:22.482Z,99.90
2018-03-25T18:35:50.828Z,99.90
2018-03-25T18:38:19.067Z,99.90
2018-03-25T18:40:47.355Z,99.90
2018-03-25T18:43:15.614Z,99.90
2018-03-25T18:45:43.898Z,99.90
2018-03-25T18:48:12.195Z,99.90
2018-03-25T18:50:40.442Z,99.90
2018-03-25T18:53:08.730Z,99.90
2018-03-25T18:55:36.994Z,99.90
2018-03-25T18:58:04.514Z,99.90
2018-03-25T19:00:32.783Z,99.90
2018-03-25T19:03:01.081Z,99.90
2018-03-25T19:05:29.383Z,99.90
2018-03-25T19:07:57.654Z,99.90
2018-03-25T19:10:25.954Z,99.90
2018-03-25T19:12:54.211Z,99.90
2018-03-25T19:15:22.498Z,99.90
2018-03-25T19:17:50.751Z,99.90
2018-03-25T19:20:19.046Z,99.90
2018-03-25T19:22:47.334Z,99.90
2018-03-25T19:25:16.022Z,99.90
2018-03-25T19:27:45.507Z,99.90
2018-03-25T19:30:13.803Z,99.90
2018-03-25T19:32:42.068Z,99.90
2018-03-25T19:35:10.372Z,99.90
2018-03-25T19:37:38.667Z,99.90
2018-03-25T19:40:06.918Z,99.90
2018-03-25T19:42:35.176Z,99.90
2018-03-25T19:45:03.462Z,99.90
2018-03-25T19:47:31.719Z,99.90
2018-03-25T19:50:00.006Z,99.90
2018-03-25T19:52:27.498Z,99.90
2018-03-25T19:54:55.793Z,99.90
2018-03-25T19:57:24.063Z,99.90
2018-03-25T19:59:52.370Z,99.90
2018-03-25T20:02:20.629Z,99.90
2018-03-25T20:04:48.156Z,99.90
2018-03-25T20:07:17.052Z,99.90
2018-03-25T20:09:46.054Z,99.90
2018-03-25T20:12:15.468Z,99.90
2018-03-25T20:14:43.744Z,99.90
2018-03-25T20:17:12.053Z,99.90
2018-03-25T20:19:40.318Z,99.90
2018-03-25T20:22:08.606Z,99.90
2018-03-25T20:24:36.101Z,99.90
2018-03-25T20:27:04.376Z,99.90
2018-03-25T20:29:32.691Z,99.90
2018-03-25T20:32:00.942Z,99.90
2018-03-25T20:34:29.190Z,99.90
2018-03-25T20:36:56.715Z,99.90
2018-03-25T20:39:24.971Z,99.90
2018-03-25T20:41:53.264Z,99.90
2018-03-25T20:44:21.536Z,99.90
2018-03-25T20:46:49.814Z,99.90
2018-03-25T20:49:18.062Z,99.90
2018-03-25T20:51:49.830Z,99.90
2018-03-25T20:54:18.090Z,99.90
2018-03-25T20:56:48.395Z,99.90
2018-03-25T20:59:16.688Z,99.90
2018-03-25T21:01:45.874Z,99.90
2018-03-25T21:04:14.158Z,99.90
2018-03-25T21:06:42.415Z,99.90
2018-03-25T21:09:10.707Z,99.90
2018-03-25T21:11:38.966Z,99.90
2018-03-25T21:14:07.265Z,99.90
2018-03-25T21:16:35.541Z,99.90
2018-03-25T21:19:03.841Z,99.90
2018-03-25T21:21:32.099Z,99.90
2018-03-25T21:24:00.396Z,99.90
2018-03-25T21:26:28.665Z,99.90
2018-03-25T21:28:56.991Z,99.90
2018-03-25T21:31:25.257Z,99.90
2018-03-25T21:33:53.507Z,99.90
2018-03-25T21:36:21.807Z,99.90
2018-03-25T21:38:50.074Z,99.90
2018-03-25T21:41:18.354Z,99.90
2018-03-25T21:43:46.597Z,99.90
2018-03-25T21:46:15.922Z,99.90
2018-03-25T21:48:44.173Z,99.90
2018-03-25T21:51:12.551Z,99.90
2018-03-25T21:53:40.805Z,99.90
2018-03-25T21:56:09.058Z,99.90
2018-03-25T21:58:37.349Z,99.90
2018-03-25T22:01:05.607Z,99.90
2018-03-25T22:03:33.112Z,99.90
2018-03-25T22:06:01.390Z,99.90
2018-03-25T22:08:29.649Z,99.90
2018-03-25T22:10:57.931Z,99.90
2018-03-25T22:13:25.442Z,99.90
2018-03-25T22:15:53.737Z,99.90
2018-03-25T22:18:29.787Z,99.90
2018-03-25T22:20:58.068Z,99.90
2018-03-25T22:23:26.324Z,99.90
2018-03-25T22:25:54.606Z,99.90
2018-03-25T22:28:22.873Z,99.90
2018-03-25T22:30:51.156Z,99.90
2018-03-25T22:33:19.442Z,99.90
2018-03-25T22:35:47.705Z,99.90
2018-03-25T22:38:17.124Z,99.90
2018-03-25T22:40:46.418Z,99.90
2018-03-25T22:43:14.731Z,99.90
2018-03-25T22:45:42.218Z,99.90
2018-03-25T22:48:10.506Z,99.90
2018-03-25T22:50:38.762Z,99.90
2018-03-25T22:53:07.041Z,99.90
2018-03-25T22:55:35.294Z,99.90
2018-03-25T22:58:03.581Z,99.90
2018-03-25T23:00:31.826Z,99.90
2018-03-25T23:03:00.088Z,99.90
2018-03-25T23:05:28.400Z,99.90
2018-03-25T23:07:56.654Z,99.90
2018-03-25T23:10:24.902Z,99.90
2018-03-25T23:12:53.192Z,99.90
2018-03-25T23:15:21.442Z,99.90
2018-03-25T23:17:49.760Z,99.90
2018-03-25T23:20:18.018Z,99.90
2018-03-25T23:22:47.503Z,99.90
2018-03-25T23:25:16.654Z,99.90
2018-03-25T23:27:44.146Z,99.90
2018-03-25T23:30:12.430Z,99.90
2018-03-25T23:32:40.725Z,99.90
2018-03-25T23:35:08.981Z,99.90
2018-03-25T23:37:37.281Z,99.90
2018-03-25T23:40:05.526Z,99.90
2018-03-25T23:42:33.783Z,99.90
2018-03-25T23:45:01.310Z,99.90
2018-03-25T23:47:29.563Z,99.90
2018-03-25T23:49:57.814Z,99.90
2018-03-25T23:52:26.116Z,99.90
2018-03-25T23:54:54.370Z,99.90
2018-03-25T23:57:22.636Z,99.90
2018-03-25T23:59:50.934Z,99.90
